createdAt,value
2022-10-16T00:02:11.186Z,88.04
2022-10-16T00:04:43.883Z,88.40
2022-10-16T00:07:19.980Z,88.36
2022-10-16T00:10:23.451Z,88.70
2022-10-16T00:13:01.072Z,88.36
2022-10-16T00:15:34.796Z,88.06
2022-10-16T00:18:06.476Z,88.32
2022-10-16T00:20:49.183Z,88.49
2022-10-16T00:23:23.749Z,88.35
2022-10-16T00:26:53.929Z,88.21
2022-10-16T00:29:33.667Z,88.27
2022-10-16T00:32:41.234Z,88.43
2022-10-16T00:43:53.663Z,88.31
2022-10-16T00:46:29.463Z,88.77
2022-10-16T00:49:22.833Z,88.63
2022-10-16T00:52:03.935Z,88.51
2022-10-16T00:54:44.895Z,88.52
2022-10-16T00:57:16.010Z,88.26
2022-10-16T01:00:06.681Z,88.62
2022-10-16T01:05:37.255Z,88.52
2022-10-16T01:08:21.826Z,88.72
2022-10-16T01:11:03.372Z,88.51
2022-10-16T01:14:00.622Z,88.68
2022-10-16T01:20:34.244Z,88.26
2022-10-16T01:23:56.220Z,89.03
2022-10-16T01:27:26.712Z,88.50
2022-10-16T01:30:22.976Z,88.53
2022-10-16T01:33:06.714Z,88.21
2022-10-16T01:35:51.702Z,88.79
2022-10-16T01:38:34.435Z,88.90
2022-10-16T01:41:35.217Z,88.53
2022-10-16T01:47:48.870Z,88.07
2022-10-16T01:50:50.318Z,88.09
2022-10-16T01:53:39.523Z,88.59
2022-10-16T01:56:20.349Z,88.73
2022-10-16T01:59:12.199Z,88.61
2022-10-16T02:04:49.878Z,88.63
2022-10-16T02:07:20.728Z,88.56
2022-10-16T02:10:01.279Z,88.45
2022-10-16T02:12:57.110Z,88.44
2022-10-16T02:15:34.929Z,88.21
2022-10-16T02:18:10.821Z,88.31
2022-10-16T02:20:56.517Z,88.25
2022-10-16T02:24:03.242Z,88.19
2022-10-16T02:26:42.627Z,88.31
2022-10-16T02:29:19.766Z,88.24
2022-10-16T02:32:22.419Z,87.72
2022-10-16T02:35:22.627Z,87.58
2022-10-16T02:38:08.661Z,87.12
2022-10-16T02:40:46.836Z,87.21
2022-10-16T02:43:20.310Z,87.15
2022-10-16T02:45:55.542Z,87.36
2022-10-16T02:48:31.663Z,86.63
2022-10-16T02:51:14.946Z,86.80
2022-10-16T02:54:21.656Z,86.54
2022-10-16T02:56:59.714Z,86.50
2022-10-16T02:59:31.673Z,86.43
2022-10-16T03:02:14.684Z,85.89
2022-10-16T03:04:46.871Z,85.78
2022-10-16T03:07:36.038Z,86.03
2022-10-16T03:10:15.848Z,86.01
2022-10-16T03:13:07.653Z,86.02
2022-10-16T03:15:55.918Z,85.61
2022-10-16T03:18:43.403Z,85.45
2022-10-16T03:21:28.863Z,85.49
2022-10-16T03:24:09.528Z,85.26
2022-10-16T03:26:44.800Z,84.89
2022-10-16T03:32:12.836Z,85.22
2022-10-16T03:34:58.857Z,85.06
2022-10-16T03:37:51.220Z,85.18
2022-10-16T03:40:43.221Z,84.83
2022-10-16T03:43:18.474Z,84.75
2022-10-16T03:45:56.617Z,84.89
2022-10-16T03:48:30.802Z,85.19
2022-10-16T03:51:04.553Z,84.73
2022-10-16T03:53:44.334Z,85.03
2022-10-16T03:59:19.146Z,84.92
2022-10-16T04:02:06.398Z,84.95
2022-10-16T04:04:39.815Z,84.57
2022-10-16T04:07:19.379Z,84.83
2022-10-16T04:10:00.149Z,84.99
2022-10-16T04:12:57.573Z,85.32
2022-10-16T04:15:39.888Z,85.38
2022-10-16T04:18:27.088Z,85.25
2022-10-16T04:21:09.568Z,85.70
2022-10-16T04:23:42.590Z,85.65
2022-10-16T04:26:26.147Z,85.55
2022-10-16T04:29:13.546Z,86.14
2022-10-16T04:31:48.177Z,86.03
2022-10-16T04:34:26.106Z,86.08
2022-10-16T04:39:53.991Z,85.62
2022-10-16T04:42:27.233Z,85.82
2022-10-16T04:45:02.815Z,85.80
2022-10-16T04:47:47.304Z,85.85
2022-10-16T04:50:22.293Z,86.10
2022-10-16T04:53:06.299Z,86.06
2022-10-16T04:58:39.456Z,86.06
2022-10-16T05:01:18.705Z,85.92
2022-10-16T05:04:02.432Z,86.38
2022-10-16T05:06:51.211Z,86.33
2022-10-16T05:09:31.017Z,85.77
2022-10-16T05:12:06.096Z,85.87
2022-10-16T05:14:41.453Z,85.90
2022-10-16T05:17:18.924Z,86.32
2022-10-16T05:19:51.942Z,86.11
2022-10-16T05:22:31.556Z,85.92
2022-10-16T05:25:48.234Z,85.46
2022-10-16T05:28:37.253Z,85.67
2022-10-16T05:31:20.856Z,86.03
2022-10-16T05:34:03.637Z,85.48
2022-10-16T05:37:11.847Z,85.42
2022-10-16T05:39:52.145Z,86.02
2022-10-16T05:42:33.159Z,85.53
2022-10-16T05:45:07.411Z,85.85
2022-10-16T05:53:52.585Z,85.43
2022-10-16T05:56:22.818Z,85.64
2022-10-16T05:58:58.322Z,85.87
2022-10-16T06:01:54.626Z,85.96
2022-10-16T06:04:25.343Z,85.87
2022-10-16T06:06:59.131Z,85.73
2022-10-16T06:09:53.543Z,85.79
2022-10-16T06:12:31.714Z,85.76
2022-10-16T06:15:12.508Z,86.25
2022-10-16T06:18:00.047Z,85.97
2022-10-16T06:23:24.285Z,85.92
2022-10-16T06:26:12.967Z,85.67
2022-10-16T06:28:46.976Z,86.47
2022-10-16T06:31:34.652Z,86.50
2022-10-16T06:34:12.043Z,86.66
2022-10-16T06:36:45.424Z,86.33
2022-10-16T06:39:16.487Z,86.67
2022-10-16T06:41:55.446Z,86.35
2022-10-16T06:44:44.842Z,86.67
2022-10-16T06:47:28.067Z,86.38
2022-10-16T06:50:23.619Z,86.51
2022-10-16T06:53:07.653Z,86.41
2022-10-16T06:55:40.140Z,86.80
2022-10-16T07:01:01.352Z,86.24
2022-10-16T07:07:04.454Z,85.96
2022-10-16T07:09:52.288Z,86.03
2022-10-16T07:12:38.631Z,85.72
2022-10-16T07:15:31.265Z,85.78
2022-10-16T07:18:07.993Z,85.64
2022-10-16T07:20:52.554Z,85.71
2022-10-16T07:23:30.184Z,85.17
2022-10-16T07:26:18.523Z,85.45
2022-10-16T07:28:56.227Z,85.19
2022-10-16T07:31:44.660Z,85.18
2022-10-16T07:34:33.863Z,85.04
2022-10-16T07:39:59.899Z,84.60
2022-10-16T07:43:16.138Z,84.32
2022-10-16T07:46:01.318Z,84.01
2022-10-16T07:48:54.012Z,84.02
2022-10-16T07:51:35.822Z,83.68
2022-10-16T07:54:29.412Z,83.59
2022-10-16T07:57:21.352Z,83.35
2022-10-16T07:59:56.157Z,83.28
2022-10-16T08:02:37.939Z,83.01
2022-10-16T08:05:43.274Z,83.27
2022-10-16T08:08:27.410Z,83.20
2022-10-16T08:11:09.786Z,83.01
2022-10-16T08:13:59.119Z,83.36
2022-10-16T08:16:34.129Z,83.07
2022-10-16T08:22:10.913Z,83.96
2022-10-16T08:24:57.253Z,83.48
2022-10-16T08:30:45.169Z,83.27
2022-10-16T08:33:28.568Z,82.99
2022-10-16T08:36:02.588Z,82.88
2022-10-16T08:38:43.691Z,83.01
2022-10-16T08:41:39.151Z,82.73
2022-10-16T08:45:09.227Z,83.00
2022-10-16T08:47:57.264Z,82.83
2022-10-16T08:50:33.221Z,82.43
2022-10-16T08:53:09.668Z,82.23
2022-10-16T08:55:57.699Z,82.00
2022-10-16T08:58:36.356Z,81.75
2022-10-16T09:01:15.395Z,81.74
2022-10-16T09:04:38.268Z,81.59
2022-10-16T09:07:21.488Z,81.04
2022-10-16T09:10:07.678Z,80.82
2022-10-16T09:12:43.837Z,80.69
2022-10-16T09:15:35.862Z,80.59
2022-10-16T09:18:30.150Z,80.59
2022-10-16T09:21:14.129Z,80.51
2022-10-16T09:23:52.837Z,80.08
2022-10-16T09:26:41.195Z,79.46
2022-10-16T09:29:13.957Z,79.51
2022-10-16T09:31:50.589Z,79.15
2022-10-16T09:34:45.353Z,78.83
2022-10-16T09:37:23.083Z,78.08
2022-10-16T09:40:05.205Z,77.90
2022-10-16T09:42:39.583Z,77.27
2022-10-16T09:45:26.885Z,77.24
2022-10-16T09:48:03.501Z,76.71
2022-10-16T09:50:34.478Z,76.62
2022-10-16T09:53:44.406Z,76.30
2022-10-16T09:56:24.183Z,75.85
2022-10-16T09:59:02.580Z,75.44
2022-10-16T10:02:06.066Z,75.34
2022-10-16T10:04:47.317Z,74.82
2022-10-16T10:07:28.519Z,74.30
2022-10-16T10:10:01.533Z,73.87
2022-10-16T10:12:37.172Z,73.04
2022-10-16T10:15:11.150Z,73.22
2022-10-16T10:17:54.025Z,72.52
2022-10-16T10:20:30.455Z,71.87
2022-10-16T10:22:59.532Z,71.60
2022-10-16T10:25:52.288Z,71.71
2022-10-16T10:28:50.019Z,71.61
2022-10-16T10:31:27.164Z,71.17
2022-10-16T10:34:41.977Z,71.58
2022-10-16T10:37:36.555Z,71.20
2022-10-16T10:40:25.347Z,70.62
2022-10-16T10:43:09.610Z,70.50
2022-10-16T10:45:48.923Z,69.99
2022-10-16T10:48:52.787Z,69.51
2022-10-16T10:51:31.540Z,69.42
2022-10-16T10:54:11.169Z,69.27
2022-10-16T10:56:50.276Z,68.94
2022-10-16T10:59:56.708Z,68.55
2022-10-16T11:02:35.593Z,68.70
2022-10-16T11:05:35.726Z,68.41
2022-10-16T11:08:12.060Z,67.86
2022-10-16T11:10:50.080Z,67.46
2022-10-16T11:13:31.332Z,67.27
2022-10-16T11:16:04.066Z,66.45
2022-10-16T11:18:44.777Z,66.25
2022-10-16T11:21:16.759Z,66.29
2022-10-16T11:23:54.619Z,65.67
2022-10-16T11:26:26.134Z,65.63
2022-10-16T11:28:56.878Z,65.56
2022-10-16T11:31:35.585Z,65.32
2022-10-16T11:34:16.907Z,65.07
2022-10-16T11:36:52.331Z,65.24
2022-10-16T11:39:26.616Z,65.45
2022-10-16T11:41:58.919Z,65.07
2022-10-16T11:44:41.086Z,64.29
2022-10-16T11:47:54.414Z,63.58
2022-10-16T11:50:25.375Z,62.79
2022-10-16T11:53:03.659Z,62.32
2022-10-16T11:55:41.787Z,62.03
2022-10-16T11:58:25.305Z,62.45
2022-10-16T12:01:04.739Z,61.76
2022-10-16T12:03:44.903Z,60.38
2022-10-16T12:06:30.867Z,60.33
2022-10-16T12:09:01.849Z,59.43
2022-10-16T12:11:41.021Z,58.85
2022-10-16T12:14:43.005Z,58.57
2022-10-16T12:17:35.794Z,58.30
2022-10-16T12:20:24.684Z,58.28
2022-10-16T12:22:56.467Z,58.12
2022-10-16T12:25:29.480Z,57.73
2022-10-16T12:28:03.215Z,57.29
2022-10-16T12:30:35.908Z,57.11
2022-10-16T12:33:07.536Z,57.24
2022-10-16T12:35:44.760Z,56.30
2022-10-16T12:38:21.175Z,55.37
2022-10-16T12:40:58.838Z,53.98
2022-10-16T12:43:39.759Z,52.24
2022-10-16T12:46:26.091Z,49.69
2022-10-16T12:49:09.427Z,48.68
2022-10-16T12:51:39.123Z,46.74
2022-10-16T12:54:16.208Z,46.09
2022-10-16T12:57:00.176Z,45.23
2022-10-16T12:59:45.936Z,44.47
2022-10-16T13:03:10.355Z,43.32
2022-10-16T13:05:56.948Z,42.52
2022-10-16T13:08:43.795Z,42.80
2022-10-16T13:11:22.896Z,41.55
2022-10-16T13:14:09.554Z,41.31
2022-10-16T13:16:52.665Z,39.26
2022-10-16T13:19:31.775Z,39.65
2022-10-16T13:22:07.528Z,40.43
2022-10-16T13:24:57.471Z,39.75
2022-10-16T13:27:39.079Z,39.95
2022-10-16T13:30:18.090Z,39.51
2022-10-16T13:35:27.512Z,41.39
2022-10-16T13:38:07.823Z,43.37
2022-10-16T13:40:36.054Z,44.32
2022-10-16T13:43:04.700Z,45.46
2022-10-16T13:45:32.798Z,45.88
2022-10-16T13:48:06.545Z,46.61
2022-10-16T13:50:34.695Z,47.13
2022-10-16T13:53:09.763Z,47.14
2022-10-16T13:55:38.353Z,48.00
2022-10-16T13:58:14.475Z,47.96
2022-10-16T14:00:45.174Z,48.10
2022-10-16T14:03:17.418Z,47.59
2022-10-16T14:05:51.138Z,48.01
2022-10-16T14:08:19.923Z,47.77
2022-10-16T14:10:51.752Z,47.61
2022-10-16T14:13:24.163Z,47.65
2022-10-16T14:15:56.057Z,47.74
2022-10-16T14:18:33.272Z,47.82
2022-10-16T14:21:09.594Z,48.20
2022-10-16T14:23:39.960Z,48.66
2022-10-16T14:26:15.793Z,48.84
2022-10-16T14:28:45.518Z,49.28
2022-10-16T14:31:29.683Z,49.38
2022-10-16T14:34:00.612Z,50.07
2022-10-16T14:36:29.999Z,50.59
2022-10-16T14:39:05.208Z,50.85
2022-10-16T14:41:35.365Z,51.47
2022-10-16T14:44:06.092Z,51.59
2022-10-16T14:46:38.099Z,51.86
2022-10-16T14:49:20.778Z,51.98
2022-10-16T14:51:49.436Z,52.37
2022-10-16T14:54:20.292Z,52.91
2022-10-16T14:56:53.242Z,52.88
2022-10-16T14:59:28.483Z,53.48
2022-10-16T15:01:56.775Z,53.68
2022-10-16T15:04:26.380Z,54.42
2022-10-16T15:06:54.512Z,54.48
2022-10-16T15:09:22.592Z,54.61
2022-10-16T15:11:50.932Z,54.56
2022-10-16T15:14:19.471Z,54.89
2022-10-16T15:16:48.258Z,55.14
2022-10-16T15:19:16.405Z,55.54
2022-10-16T15:21:45.974Z,55.72
2022-10-16T15:24:19.215Z,56.23
2022-10-16T15:26:50.221Z,56.67
2022-10-16T15:29:18.700Z,56.67
2022-10-16T15:31:48.577Z,57.41
2022-10-16T15:34:17.666Z,57.38
2022-10-16T15:36:47.318Z,57.60
2022-10-16T15:39:18.536Z,58.15
2022-10-16T15:41:51.514Z,58.51
2022-10-16T15:44:19.764Z,59.13
2022-10-16T15:46:48.587Z,59.22
2022-10-16T15:49:16.872Z,59.52
2022-10-16T15:51:47.906Z,59.92
2022-10-16T15:54:16.201Z,60.34
2022-10-16T15:56:45.066Z,60.75
2022-10-16T15:59:13.181Z,61.41
2022-10-16T16:01:41.714Z,61.75
2022-10-16T16:04:11.253Z,61.90
2022-10-16T16:06:50.096Z,62.74
2022-10-16T16:09:18.244Z,63.17
2022-10-16T16:11:46.707Z,63.65
2022-10-16T16:14:15.996Z,64.03
2022-10-16T16:16:44.409Z,64.43
2022-10-16T16:19:12.730Z,64.81
2022-10-16T16:21:41.002Z,64.88
2022-10-16T16:24:11.026Z,65.50
2022-10-16T16:26:40.917Z,65.81
2022-10-16T16:29:10.674Z,66.17
2022-10-16T16:31:39.534Z,66.63
2022-10-16T16:34:08.764Z,67.62
2022-10-16T16:36:37.491Z,68.03
2022-10-16T16:39:05.831Z,68.57
2022-10-16T16:41:35.611Z,68.78
2022-10-16T16:44:06.405Z,69.04
2022-10-16T16:46:35.718Z,69.76
2022-10-16T16:49:05.038Z,69.28
2022-10-16T16:51:36.913Z,69.99
2022-10-16T16:54:09.806Z,70.37
2022-10-16T16:56:39.447Z,70.68
2022-10-16T16:59:07.640Z,70.98
2022-10-16T17:01:35.974Z,71.65
2022-10-16T17:04:04.043Z,71.70
2022-10-16T17:06:32.246Z,72.33
2022-10-16T17:09:00.957Z,72.28
2022-10-16T17:11:30.451Z,73.06
2022-10-16T17:14:01.286Z,73.03
2022-10-16T17:16:32.706Z,73.48
2022-10-16T17:19:04.920Z,73.82
2022-10-16T17:21:33.233Z,73.80
2022-10-16T17:24:01.971Z,74.18
2022-10-16T17:26:30.356Z,74.72
2022-10-16T17:29:02.838Z,74.85
2022-10-16T17:31:35.193Z,75.07
2022-10-16T17:34:06.564Z,75.23
2022-10-16T17:36:37.554Z,75.50
2022-10-16T17:39:09.600Z,75.71
2022-10-16T17:41:38.340Z,76.10
2022-10-16T17:44:09.268Z,76.46
2022-10-16T17:46:40.944Z,76.78
2022-10-16T17:49:10.810Z,76.63
2022-10-16T17:51:39.027Z,76.91
2022-10-16T17:54:09.864Z,77.36
2022-10-16T17:56:37.956Z,77.35
2022-10-16T17:59:07.834Z,77.24
2022-10-16T18:01:40.102Z,77.39
2022-10-16T18:04:12.377Z,77.81
2022-10-16T18:06:42.778Z,77.92
2022-10-16T18:09:14.946Z,78.40
2022-10-16T18:11:43.207Z,78.91
2022-10-16T18:14:15.679Z,79.34
2022-10-16T18:16:44.181Z,78.87
2022-10-16T18:19:13.265Z,78.97
2022-10-16T18:21:41.703Z,79.37
2022-10-16T18:24:11.165Z,79.38
2022-10-16T18:26:39.919Z,79.54
2022-10-16T18:29:08.772Z,79.79
2022-10-16T18:31:41.885Z,80.01
2022-10-16T18:34:12.452Z,79.69
2022-10-16T18:36:42.293Z,79.59
2022-10-16T18:39:11.439Z,79.59
2022-10-16T18:41:40.825Z,80.03
2022-10-16T18:44:10.877Z,80.01
2022-10-16T18:46:41.030Z,80.00
2022-10-16T18:49:09.178Z,80.56
2022-10-16T18:51:40.638Z,80.81
2022-10-16T18:54:11.489Z,80.48
2022-10-16T18:56:40.339Z,80.90
2022-10-16T18:59:10.433Z,81.27
2022-10-16T19:01:42.571Z,81.02
2022-10-16T19:04:13.369Z,81.33
2022-10-16T19:06:45.044Z,81.02
2022-10-16T19:15:01.403Z,81.18
2022-10-16T19:17:39.823Z,81.33
2022-10-16T19:20:11.099Z,81.13
2022-10-16T19:23:02.070Z,81.50
2022-10-16T19:25:30.529Z,81.40
2022-10-16T19:27:59.381Z,81.21
2022-10-16T19:30:29.831Z,81.29
2022-10-16T19:35:53.136Z,81.44
2022-10-16T19:38:29.410Z,81.24
2022-10-16T19:41:08.139Z,81.95
2022-10-16T19:43:47.666Z,82.05
2022-10-16T19:46:20.639Z,81.44
2022-10-16T19:49:05.645Z,81.75
2022-10-16T19:51:35.877Z,81.35
2022-10-16T19:54:08.986Z,81.99
2022-10-16T19:56:40.971Z,82.20
2022-10-16T19:59:17.292Z,81.64
2022-10-16T20:01:49.097Z,82.03
2022-10-16T20:04:21.215Z,81.14
2022-10-16T20:09:23.901Z,81.39
2022-10-16T20:11:53.049Z,81.91
2022-10-16T20:14:37.514Z,81.59
2022-10-16T20:17:15.220Z,81.56
2022-10-16T20:19:50.866Z,81.51
2022-10-16T20:22:19.467Z,81.69
2022-10-16T20:24:51.211Z,81.37
2022-10-16T20:27:21.519Z,81.44
2022-10-16T20:29:51.535Z,81.59
2022-10-16T20:32:25.346Z,81.69
2022-10-16T20:35:07.107Z,81.64
2022-10-16T20:37:38.036Z,81.59
2022-10-16T20:40:16.697Z,81.18
2022-10-16T20:42:48.659Z,81.17
2022-10-16T20:45:17.181Z,81.50
2022-10-16T20:47:46.787Z,81.54
2022-10-16T20:50:18.215Z,81.79
2022-10-16T20:52:53.380Z,81.28
2022-10-16T20:55:29.601Z,81.50
2022-10-16T20:58:02.295Z,81.76
2022-10-16T21:00:47.765Z,81.67
2022-10-16T21:03:19.009Z,82.19
2022-10-16T21:08:46.705Z,82.13
2022-10-16T21:11:21.130Z,82.34
2022-10-16T21:19:24.576Z,82.37
2022-10-16T21:21:55.257Z,81.76
2022-10-16T21:24:26.460Z,82.56
2022-10-16T21:27:21.593Z,82.02
2022-10-16T21:29:51.305Z,82.19
2022-10-16T21:32:38.786Z,81.91
2022-10-16T21:35:09.462Z,81.73
2022-10-16T21:37:49.834Z,82.17
2022-10-16T21:40:18.231Z,81.90
2022-10-16T21:42:54.518Z,81.86
2022-10-16T21:48:05.944Z,81.69
2022-10-16T21:50:36.943Z,81.66
2022-10-16T21:53:28.705Z,82.16
2022-10-16T21:56:04.792Z,81.67
2022-10-16T21:58:40.695Z,82.22
2022-10-16T22:01:13.710Z,82.07
2022-10-16T22:03:42.717Z,81.94
2022-10-16T22:06:12.327Z,81.13
2022-10-16T22:09:14.898Z,81.42
2022-10-16T22:11:46.847Z,81.87
2022-10-16T22:14:50.711Z,81.36
2022-10-16T22:17:25.068Z,81.88
2022-10-16T22:20:02.756Z,81.81
2022-10-16T22:22:33.939Z,81.81
2022-10-16T22:25:07.077Z,81.53
2022-10-16T22:27:35.468Z,81.53
2022-10-16T22:30:04.179Z,82.18
2022-10-16T22:32:35.065Z,82.17
2022-10-16T22:35:04.786Z,82.28
2022-10-16T22:37:35.551Z,82.12
2022-10-16T22:40:06.161Z,81.72
2022-10-16T22:42:37.571Z,81.52
2022-10-16T22:45:08.118Z,82.01
2022-10-16T22:47:40.756Z,81.99
2022-10-16T22:50:16.590Z,81.34
2022-10-16T22:52:47.104Z,81.69
2022-10-16T22:56:03.677Z,81.75
2022-10-16T22:58:32.070Z,82.11
2022-10-16T23:01:01.675Z,82.02
2022-10-16T23:03:46.170Z,82.16
2022-10-16T23:06:26.252Z,82.39
2022-10-16T23:09:11.853Z,81.97
2022-10-16T23:11:50.068Z,82.58
2022-10-16T23:14:26.065Z,83.08
2022-10-16T23:17:02.970Z,83.20
2022-10-16T23:19:32.761Z,83.40
2022-10-16T23:22:07.328Z,82.99
2022-10-16T23:24:42.907Z,83.70
2022-10-16T23:27:27.573Z,83.63
2022-10-16T23:30:01.053Z,83.50
2022-10-16T23:32:30.116Z,83.83
2022-10-16T23:37:47.661Z,83.98
2022-10-16T23:40:17.599Z,84.41
2022-10-16T23:42:52.668Z,84.35
2022-10-16T23:45:23.046Z,84.14
2022-10-16T23:47:55.546Z,84.47
2022-10-16T23:50:24.269Z,84.51
2022-10-16T23:52:53.369Z,84.32
2022-10-16T23:55:25.753Z,84.85
2022-10-16T23:57:56.130Z,84.26
